Terminal Aerodrome Forecast
Issued by NWS

Home | Current Version | Previous Version | Text Only | Print | Product List | Glossary On
Versions: 1 2 3 4 5 6 7 8 9 10 11 12 13 14 15 16 17 18 19 20 21 22 23 24 25 26 27 28
000
FTUS43 KDMX 260520
TAFOTM
TAF
KOTM 260520Z 2606/2706 02007KT 1/4SM -RA FG VV002
     FM261400 01007KT 1/2SM FG VCSH OVC003
     FM261700 30008KT 2SM BR OVC007
     FM261900 30008KT 6SM BR OVC010
     FM262200 29008KT P6SM OVC014
     FM270200 31005KT 5SM BR OVC012=

USA.gov is the U.S. government's official web portal to all federal, state and local government web resources and services.